createdAt,value
2023-05-14T00:01:42.006Z,7.78
2023-05-14T00:04:44.501Z,6.13
2023-05-14T00:07:46.827Z,6.53
2023-05-14T00:10:49.207Z,7.85
2023-05-14T00:13:51.588Z,7.20
2023-05-14T00:16:53.937Z,7.30
2023-05-14T00:19:56.476Z,6.68
2023-05-14T00:22:58.895Z,7.25
2023-05-14T00:26:01.229Z,7.20
2023-05-14T00:29:03.534Z,6.78
2023-05-14T00:32:06.474Z,7.13
2023-05-14T00:35:09.262Z,10.57
2023-05-14T00:38:16.941Z,9.93
2023-05-14T00:41:19.324Z,7.57
2023-05-14T00:44:21.751Z,7.15
2023-05-14T00:47:24.177Z,7.20
2023-05-14T00:50:26.746Z,7.70
2023-05-14T00:53:29.509Z,7.20
2023-05-14T00:56:31.931Z,7.75
2023-05-14T00:59:34.732Z,7.03
2023-05-14T01:02:37.126Z,6.45
2023-05-14T01:06:13.960Z,7.20
2023-05-14T01:09:22.784Z,5.37
2023-05-14T01:12:50.946Z,5.40
2023-05-14T01:15:57.288Z,8.23
2023-05-14T01:19:00.849Z,7.47
2023-05-14T01:22:03.382Z,8.25
2023-05-14T01:25:07.085Z,6.32
2023-05-14T01:28:19.934Z,7.22
2023-05-14T01:31:28.018Z,6.65
2023-05-14T01:34:31.378Z,7.88
2023-05-14T01:37:36.295Z,7.50
2023-05-14T01:40:39.586Z,8.13
2023-05-14T01:43:42.524Z,9.43
2023-05-14T01:46:44.903Z,8.60
2023-05-14T01:49:47.393Z,10.13
2023-05-14T01:52:51.272Z,11.23
2023-05-14T01:55:53.616Z,9.75
2023-05-14T01:58:56.895Z,9.40
2023-05-14T02:01:59.284Z,9.45
2023-05-14T02:05:01.786Z,10.02
2023-05-14T02:08:04.423Z,10.55
2023-05-14T02:11:08.101Z,9.13
2023-05-14T02:14:10.874Z,8.10
2023-05-14T02:17:15.969Z,8.65
2023-05-14T02:20:18.544Z,10.13
2023-05-14T02:23:28.107Z,10.93
2023-05-14T02:26:36.901Z,9.15
2023-05-14T02:29:39.534Z,9.43
2023-05-14T02:32:42.047Z,10.82
2023-05-14T02:35:44.431Z,11.13
2023-05-14T02:38:46.811Z,9.48
2023-05-14T02:41:49.201Z,10.07
2023-05-14T02:44:52.963Z,8.10
2023-05-14T02:47:56.531Z,7.40
2023-05-14T02:50:58.928Z,9.20
2023-05-14T02:54:01.350Z,9.18
2023-05-14T02:57:03.886Z,9.13
2023-05-14T03:00:06.914Z,8.35
2023-05-14T03:03:09.742Z,9.00
2023-05-14T03:06:12.807Z,9.20
2023-05-14T03:09:15.295Z,10.10
2023-05-14T03:12:18.228Z,9.33
2023-05-14T03:15:20.598Z,10.20
2023-05-14T03:18:23.108Z,8.10
2023-05-14T03:21:25.538Z,9.17
2023-05-14T03:24:27.886Z,9.98
2023-05-14T03:27:30.313Z,9.38
2023-05-14T03:30:32.891Z,9.23
2023-05-14T03:33:35.443Z,8.18
2023-05-14T03:36:39.720Z,7.38
2023-05-14T03:39:42.136Z,7.57
2023-05-14T03:42:44.554Z,9.30
2023-05-14T03:45:47.069Z,7.05
2023-05-14T03:48:51.979Z,10.40
2023-05-14T03:51:54.543Z,10.07
2023-05-14T03:54:56.993Z,10.02
2023-05-14T03:57:59.382Z,10.85
2023-05-14T04:01:02.164Z,9.57
2023-05-14T04:04:04.800Z,8.57
2023-05-14T04:07:07.434Z,9.65
2023-05-14T04:10:09.966Z,8.32
2023-05-14T04:13:12.350Z,9.67
2023-05-14T04:16:15.942Z,10.35
2023-05-14T04:19:20.154Z,7.15
2023-05-14T04:22:22.558Z,10.97
2023-05-14T04:25:24.875Z,9.18
2023-05-14T04:28:27.285Z,9.55
2023-05-14T04:31:30.415Z,9.32
2023-05-14T04:34:32.800Z,11.65
2023-05-14T04:37:35.185Z,8.50
2023-05-14T04:40:37.515Z,8.15
2023-05-14T04:43:40.478Z,8.97
2023-05-14T04:46:42.806Z,9.70
2023-05-14T04:49:45.238Z,8.15
2023-05-14T04:52:47.839Z,7.43
2023-05-14T04:55:50.246Z,7.68
2023-05-14T04:58:52.653Z,7.18
2023-05-14T05:01:55.127Z,10.15
2023-05-14T05:04:57.546Z,4.85
2023-05-14T05:08:00.198Z,4.53
2023-05-14T05:11:02.575Z,4.70
2023-05-14T05:14:04.924Z,4.70
2023-05-14T05:17:07.346Z,4.75
2023-05-14T05:20:10.222Z,3.80
2023-05-14T05:23:12.545Z,3.27
2023-05-14T05:26:14.880Z,3.45
2023-05-14T05:29:17.644Z,4.97
2023-05-14T05:32:20.044Z,3.47
2023-05-14T05:35:22.534Z,3.95
2023-05-14T05:38:24.965Z,4.72
2023-05-14T05:41:27.298Z,4.25
2023-05-14T05:44:29.601Z,3.17
2023-05-14T05:47:31.932Z,4.20
2023-05-14T05:50:34.323Z,3.42
2023-05-14T05:53:36.841Z,14.67
2023-05-14T05:56:39.179Z,4.90
2023-05-14T05:59:41.530Z,4.10
2023-05-14T06:02:44.359Z,2.67
2023-05-14T06:05:46.990Z,2.95
2023-05-14T06:08:49.689Z,6.40
2023-05-14T06:11:52.144Z,3.70
2023-05-14T06:14:55.702Z,5.43
2023-05-14T06:17:58.196Z,5.10
2023-05-14T06:21:00.615Z,2.90
2023-05-14T06:24:02.954Z,4.80
2023-05-14T06:27:05.542Z,3.72
2023-05-14T06:30:08.510Z,3.90
2023-05-14T06:33:12.965Z,2.65
2023-05-14T06:36:15.287Z,3.30
2023-05-14T06:39:17.632Z,4.95
2023-05-14T06:42:19.987Z,4.53
2023-05-14T06:45:23.302Z,3.43
2023-05-14T06:48:27.851Z,2.70
2023-05-14T06:51:30.740Z,4.55
2023-05-14T06:54:33.105Z,6.20
2023-05-14T06:57:35.534Z,4.30
2023-05-14T07:00:37.984Z,3.92
2023-05-14T07:03:40.467Z,3.42
2023-05-14T07:06:42.826Z,4.80
2023-05-14T07:09:45.187Z,3.67
2023-05-14T07:12:49.315Z,3.88
2023-05-14T07:15:51.730Z,3.37
2023-05-14T07:18:54.161Z,4.32
2023-05-14T07:21:57.907Z,4.15
2023-05-14T07:25:00.315Z,5.30
2023-05-14T07:28:02.773Z,4.10
2023-05-14T07:31:08.950Z,4.25
2023-05-14T07:34:12.768Z,4.35
2023-05-14T07:37:15.364Z,4.63
2023-05-14T07:40:17.791Z,6.97
2023-05-14T07:43:20.179Z,4.07
2023-05-14T07:46:23.949Z,3.63
2023-05-14T07:49:26.301Z,2.63
2023-05-14T07:52:28.794Z,4.40
2023-05-14T07:55:31.460Z,3.77
2023-05-14T07:58:35.105Z,4.75
2023-05-14T08:01:39.329Z,3.80
2023-05-14T08:04:42.031Z,3.10
2023-05-14T08:07:44.964Z,4.55
2023-05-14T08:10:47.325Z,3.50
2023-05-14T08:13:49.814Z,2.95
2023-05-14T08:16:52.363Z,5.30
2023-05-14T08:19:54.853Z,3.30
2023-05-14T08:22:58.115Z,2.70
2023-05-14T08:26:00.502Z,4.87
2023-05-14T08:29:02.827Z,3.67
2023-05-14T08:32:15.525Z,5.47
2023-05-14T08:35:24.859Z,4.47
2023-05-14T08:38:27.221Z,4.00
2023-05-14T08:41:30.167Z,3.58
2023-05-14T08:44:57.188Z,5.10
2023-05-14T08:48:02.021Z,6.03
2023-05-14T08:51:04.638Z,4.35
2023-05-14T08:54:07.429Z,3.10
2023-05-14T08:57:11.161Z,4.07
2023-05-14T09:00:15.623Z,4.90
2023-05-14T09:03:18.478Z,3.92
2023-05-14T09:06:22.278Z,3.78
2023-05-14T09:09:24.666Z,3.60
2023-05-14T09:12:27.033Z,5.20
2023-05-14T09:15:31.055Z,4.13
2023-05-14T09:18:36.083Z,5.00
2023-05-14T09:21:38.654Z,4.10
2023-05-14T09:24:41.809Z,4.35
2023-05-14T09:27:50.221Z,3.60
2023-05-14T09:30:52.707Z,4.68
2023-05-14T09:33:55.057Z,4.78
2023-05-14T09:36:59.268Z,3.65
2023-05-14T09:40:06.789Z,4.57
2023-05-14T09:43:09.729Z,4.13
2023-05-14T09:46:12.111Z,3.58
2023-05-14T09:49:14.734Z,3.17
2023-05-14T09:52:19.481Z,5.05
2023-05-14T09:55:22.945Z,3.65
2023-05-14T09:58:25.442Z,3.50
2023-05-14T10:01:30.224Z,4.38
2023-05-14T10:04:33.967Z,5.22
2023-05-14T10:07:42.825Z,4.00
2023-05-14T10:10:45.406Z,4.15
2023-05-14T10:14:02.781Z,4.50
2023-05-14T10:17:06.465Z,2.92
2023-05-14T10:20:13.135Z,3.13
2023-05-14T10:23:15.722Z,2.92
2023-05-14T10:26:18.384Z,4.88
2023-05-14T10:29:34.904Z,4.30
2023-05-14T10:32:37.997Z,3.00
2023-05-14T10:36:06.138Z,4.55
2023-05-14T10:39:09.140Z,2.70
2023-05-14T10:42:14.011Z,3.83
2023-05-14T10:45:16.887Z,2.80
2023-05-14T10:48:20.029Z,3.42
2023-05-14T10:51:23.376Z,3.83
2023-05-14T10:54:28.117Z,3.22
2023-05-14T10:57:32.389Z,5.57
2023-05-14T11:00:35.455Z,3.73
2023-05-14T11:03:43.140Z,3.60
2023-05-14T11:06:47.528Z,5.03
2023-05-14T11:09:51.051Z,4.88
2023-05-14T11:12:53.390Z,7.78
2023-05-14T11:15:56.880Z,3.50
2023-05-14T11:19:04.016Z,4.30
2023-05-14T11:22:07.987Z,3.00
2023-05-14T11:25:14.483Z,3.40
2023-05-14T11:28:17.334Z,4.53
2023-05-14T11:31:19.736Z,3.43
2023-05-14T11:34:22.139Z,8.02
2023-05-14T11:37:24.542Z,3.10
2023-05-14T11:40:27.031Z,3.63
2023-05-14T11:43:29.576Z,2.13
2023-05-14T11:46:31.996Z,2.38
2023-05-14T11:49:37.448Z,2.55
2023-05-14T11:52:41.649Z,1.67
2023-05-14T11:55:44.077Z,2.60
2023-05-14T11:58:49.432Z,3.10
2023-05-14T12:01:54.807Z,2.00
2023-05-14T12:04:57.653Z,4.38
2023-05-14T12:08:00.035Z,1.92
2023-05-14T12:11:02.378Z,1.60
2023-05-14T12:14:12.686Z,2.72
2023-05-14T12:17:19.982Z,4.45
2023-05-14T12:20:23.668Z,2.65
2023-05-14T12:23:27.732Z,2.87
2023-05-14T12:26:34.135Z,3.70
2023-05-14T12:29:39.411Z,2.88
2023-05-14T12:32:41.840Z,2.70
2023-05-14T12:35:44.610Z,2.08
2023-05-14T12:38:47.020Z,2.88
2023-05-14T12:41:49.385Z,2.00
2023-05-14T12:44:52.198Z,3.00
2023-05-14T12:47:54.644Z,3.67
2023-05-14T12:50:57.057Z,3.22
2023-05-14T12:53:59.381Z,2.90
2023-05-14T12:57:01.724Z,2.50
2023-05-14T13:00:08.237Z,4.72
2023-05-14T13:03:10.952Z,3.40
2023-05-14T13:06:13.500Z,3.22
2023-05-14T13:09:15.908Z,8.65
2023-05-14T13:12:18.278Z,10.82
2023-05-14T13:15:20.596Z,4.90
2023-05-14T13:18:23.012Z,5.65
2023-05-14T13:21:25.468Z,3.55
2023-05-14T13:24:27.859Z,3.50
2023-05-14T13:27:30.552Z,3.15
2023-05-14T13:30:32.960Z,1.58
2023-05-14T13:33:41.373Z,2.47
2023-05-14T13:36:43.918Z,2.20
2023-05-14T13:39:46.329Z,2.75
2023-05-14T13:42:48.708Z,5.90
2023-05-14T13:45:51.398Z,2.53
2023-05-14T13:48:53.745Z,3.08
2023-05-14T13:51:56.105Z,3.42
2023-05-14T13:54:58.554Z,4.07
2023-05-14T13:58:02.533Z,3.40
2023-05-14T14:01:05.047Z,4.10
2023-05-14T14:04:07.393Z,3.10
2023-05-14T14:07:09.767Z,3.53
2023-05-14T14:10:12.426Z,4.10
2023-05-14T14:13:14.767Z,2.35
2023-05-14T14:16:17.220Z,6.10
2023-05-14T14:19:19.628Z,3.75
2023-05-14T14:22:22.471Z,2.20
2023-05-14T14:25:25.696Z,5.93
2023-05-14T14:28:28.209Z,2.97
2023-05-14T14:31:30.786Z,3.65
2023-05-14T14:34:33.184Z,3.40
2023-05-14T14:37:35.575Z,2.83
2023-05-14T14:40:38.005Z,4.38
2023-05-14T14:43:41.127Z,4.72
2023-05-14T14:46:43.552Z,2.75
2023-05-14T14:49:45.957Z,5.13
2023-05-14T14:52:48.407Z,7.35
2023-05-14T14:55:51.495Z,3.93
2023-05-14T14:58:53.851Z,6.90
2023-05-14T15:01:56.230Z,7.00
2023-05-14T15:04:58.574Z,4.97
2023-05-14T15:08:00.938Z,6.03
2023-05-14T15:11:03.360Z,4.75
2023-05-14T15:14:05.788Z,4.90
2023-05-14T15:17:08.225Z,9.45
2023-05-14T15:20:11.755Z,4.15
2023-05-14T15:23:17.322Z,5.82
2023-05-14T15:26:19.692Z,11.70
2023-05-14T15:29:22.420Z,13.25
2023-05-14T15:32:27.167Z,11.10
2023-05-14T15:35:29.654Z,9.70
2023-05-14T15:38:32.022Z,30.55
2023-05-14T15:41:34.444Z,20.38
2023-05-14T15:44:38.836Z,18.08
2023-05-14T15:47:41.825Z,22.65
2023-05-14T15:50:44.298Z,18.98
2023-05-14T15:53:46.654Z,13.43
2023-05-14T15:56:49.109Z,9.43
2023-05-14T15:59:51.968Z,7.85
2023-05-14T16:02:54.435Z,8.98
2023-05-14T16:05:57.259Z,7.40
2023-05-14T16:09:00.938Z,6.53
2023-05-14T16:12:04.566Z,9.73
2023-05-14T16:15:08.031Z,46.90
2023-05-14T16:18:10.706Z,71.80
2023-05-14T16:21:13.277Z,52.33
2023-05-14T16:24:18.163Z,34.88
2023-05-14T16:27:20.539Z,30.33
2023-05-14T16:30:23.073Z,16.02
2023-05-14T16:33:25.526Z,8.80
2023-05-14T16:36:28.038Z,7.13
2023-05-14T16:39:30.360Z,7.50
2023-05-14T16:42:32.699Z,6.07
2023-05-14T16:45:37.270Z,8.07
2023-05-14T16:48:39.842Z,8.52
2023-05-14T16:51:43.908Z,8.82
2023-05-14T16:54:46.263Z,9.32
2023-05-14T16:57:48.698Z,8.07
2023-05-14T17:00:51.058Z,8.52
2023-05-14T17:03:53.898Z,7.10
2023-05-14T17:06:57.349Z,11.23
2023-05-14T17:10:00.751Z,8.50
2023-05-14T17:13:03.379Z,7.57
2023-05-14T17:16:05.971Z,6.88
2023-05-14T17:19:08.780Z,7.43
2023-05-14T17:22:11.425Z,7.03
2023-05-14T17:25:13.798Z,6.57
2023-05-14T17:28:16.226Z,6.33
2023-05-14T17:31:18.765Z,5.55
2023-05-14T17:34:21.175Z,6.10
2023-05-14T17:37:24.396Z,4.80
2023-05-14T17:40:26.815Z,5.40
2023-05-14T17:43:29.197Z,6.35
2023-05-14T17:46:33.744Z,4.80
2023-05-14T17:49:36.345Z,8.50
2023-05-14T17:52:38.824Z,10.55
2023-05-14T17:55:43.641Z,12.45
2023-05-14T17:58:46.802Z,7.63
2023-05-14T18:01:49.130Z,11.02
2023-05-14T18:04:51.551Z,12.52
2023-05-14T18:07:55.165Z,14.67
2023-05-14T18:10:58.558Z,11.23
2023-05-14T18:14:01.265Z,7.05
2023-05-14T18:17:04.024Z,6.35
2023-05-14T18:20:07.592Z,6.47
2023-05-14T18:23:10.201Z,5.97
2023-05-14T18:26:12.888Z,6.63
2023-05-14T18:29:15.342Z,6.57
2023-05-14T18:32:17.981Z,5.07
2023-05-14T18:35:20.320Z,6.68
2023-05-14T18:38:22.638Z,6.70
2023-05-14T18:41:25.124Z,6.53
2023-05-14T18:44:27.600Z,10.18
2023-05-14T18:47:30.434Z,6.88
2023-05-14T18:50:32.988Z,7.22
2023-05-14T18:53:35.479Z,8.27
2023-05-14T18:56:40.065Z,14.05
2023-05-14T18:59:42.469Z,11.70
2023-05-14T19:02:44.890Z,15.63
2023-05-14T19:05:47.617Z,18.83
2023-05-14T19:08:50.307Z,13.83
2023-05-14T19:11:52.705Z,15.40
2023-05-14T19:14:55.254Z,13.85
2023-05-14T19:17:57.946Z,11.15
2023-05-14T19:21:00.561Z,9.05
2023-05-14T19:24:03.035Z,8.70
2023-05-14T19:27:05.739Z,8.60
2023-05-14T19:30:08.658Z,8.33
2023-05-14T19:33:11.151Z,9.00
2023-05-14T19:36:13.568Z,8.13
2023-05-14T19:39:16.005Z,7.93
2023-05-14T19:42:18.696Z,7.65
2023-05-14T19:45:21.037Z,8.95
2023-05-14T19:48:23.383Z,7.13
2023-05-14T19:51:25.739Z,8.30
2023-05-14T19:54:28.121Z,8.40
2023-05-14T19:57:31.091Z,6.20
2023-05-14T20:00:33.498Z,7.70
2023-05-14T20:03:35.934Z,7.20
2023-05-14T20:06:40.307Z,11.88
2023-05-14T20:09:42.725Z,7.70
2023-05-14T20:12:45.064Z,7.85
2023-05-14T20:15:47.516Z,9.63
2023-05-14T20:18:49.996Z,8.52
2023-05-14T20:21:52.395Z,9.07
2023-05-14T20:24:54.773Z,8.85
2023-05-14T20:27:57.142Z,9.35
2023-05-14T20:31:00.211Z,10.33
2023-05-14T20:34:03.494Z,8.30
2023-05-14T20:37:06.762Z,9.75
2023-05-14T20:40:12.779Z,10.07
2023-05-14T20:43:15.412Z,8.32
2023-05-14T20:46:17.783Z,11.70
2023-05-14T20:49:20.127Z,7.15
2023-05-14T20:52:22.474Z,7.35
2023-05-14T20:55:25.041Z,5.43
2023-05-14T20:58:27.579Z,6.07
2023-05-14T21:01:29.986Z,5.37
2023-05-14T21:04:33.535Z,3.97
2023-05-14T21:07:36.557Z,6.32
2023-05-14T21:10:38.943Z,6.27
2023-05-14T21:13:43.964Z,7.38
2023-05-14T21:16:46.652Z,4.85
2023-05-14T21:19:49.048Z,5.70
2023-05-14T21:22:51.432Z,5.15
2023-05-14T21:25:54.962Z,6.35
2023-05-14T21:28:57.860Z,5.00
2023-05-14T21:32:00.341Z,5.73
2023-05-14T21:35:03.406Z,5.10
2023-05-14T21:38:05.994Z,5.40
2023-05-14T21:41:08.407Z,5.07
2023-05-14T21:44:10.765Z,6.38
2023-05-14T21:47:13.258Z,5.13
2023-05-14T21:50:15.704Z,6.03
2023-05-14T21:53:18.145Z,4.75
2023-05-14T21:56:21.126Z,5.13
2023-05-14T21:59:23.498Z,5.63
2023-05-14T22:02:26.520Z,5.77
2023-05-14T22:05:29.261Z,4.38
2023-05-14T22:08:32.244Z,4.35
2023-05-14T22:11:34.565Z,5.87
2023-05-14T22:14:36.937Z,5.45
2023-05-14T22:17:39.480Z,5.18
2023-05-14T22:20:42.827Z,6.82
2023-05-14T22:23:45.390Z,5.63
2023-05-14T22:26:47.738Z,5.93
2023-05-14T22:29:50.158Z,6.05
2023-05-14T22:32:52.582Z,4.50
2023-05-14T22:35:54.995Z,5.68
2023-05-14T22:38:57.382Z,5.00
2023-05-14T22:41:59.844Z,5.63
2023-05-14T22:45:02.295Z,5.72
2023-05-14T22:48:04.839Z,4.00
2023-05-14T22:51:07.396Z,6.07
2023-05-14T22:54:10.531Z,7.25
2023-05-14T22:57:12.913Z,6.13
2023-05-14T23:00:15.899Z,4.82
2023-05-14T23:03:18.232Z,5.30
2023-05-14T23:06:20.913Z,6.63
2023-05-14T23:09:23.492Z,5.90
2023-05-14T23:12:26.079Z,4.90
2023-05-14T23:15:28.498Z,5.57
2023-05-14T23:18:31.009Z,5.93
2023-05-14T23:21:33.511Z,5.05
2023-05-14T23:24:35.846Z,5.03
2023-05-14T23:27:38.319Z,5.18
2023-05-14T23:30:40.647Z,5.95
2023-05-14T23:33:44.672Z,5.67
2023-05-14T23:36:47.012Z,5.70
2023-05-14T23:39:49.469Z,6.65
2023-05-14T23:42:51.858Z,4.77
2023-05-14T23:45:54.381Z,4.97
2023-05-14T23:48:57.152Z,10.40
2023-05-14T23:51:59.478Z,6.15
2023-05-14T23:55:01.973Z,6.70
2023-05-14T23:58:04.937Z,4.60
